Somerville, Virginia
Current Conditions -  °F | °C
As of 9:15 AM on Thursday 27 Nov 2014 (Local Time) from KHWY Reporting Station
Overcast Overcast  
Wind Chill: 38°   Ceiling: 3300
Heat Index: 38°   Visibility: 7mi
Dew Point: 38°   Wind: 0mph
Humidity: 100%   Direction: NA
Pressure: 30.05"   Gusts: NA
Location:  38.52°N, 77.61°W
Report Text: KHWY 271415Z AUTO 00000KT 7SM OVC033 03/03 A3005 RMK AO2 T00320032
Loading
Personal Weather Stations






























Interactive Weather Map New forecast layout! Learn more

10-Day Weather Forecast

Advertisements
Track Severe Weather on mobile